sensor_id;sensor_type;location;lat;lon;timestamp;temperature;humidity
4578;DHT22;2301;47.354;8.528;2023-03-01T00:01:19;10.30;57.30
4578;DHT22;2301;47.354;8.528;2023-03-01T00:03:46;10.20;57.30
4578;DHT22;2301;47.354;8.528;2023-03-01T00:06:13;10.20;57.40
4578;DHT22;2301;47.354;8.528;2023-03-01T00:08:41;10.20;57.10
4578;DHT22;2301;47.354;8.528;2023-03-01T00:11:11;10.20;57.30
4578;DHT22;2301;47.354;8.528;2023-03-01T00:13:39;10.30;58.00
4578;DHT22;2301;47.354;8.528;2023-03-01T00:16:10;10.30;57.60
4578;DHT22;2301;47.354;8.528;2023-03-01T00:18:37;10.30;57.30
4578;DHT22;2301;47.354;8.528;2023-03-01T00:21:04;10.30;56.60
4578;DHT22;2301;47.354;8.528;2023-03-01T00:23:33;10.20;57.10
4578;DHT22;2301;47.354;8.528;2023-03-01T00:26:00;10.20;57.30
4578;DHT22;2301;47.354;8.528;2023-03-01T00:28:27;10.30;57.00
4578;DHT22;2301;47.354;8.528;2023-03-01T00:30:54;10.20;57.00
4578;DHT22;2301;47.354;8.528;2023-03-01T00:33:22;10.20;56.70
4578;DHT22;2301;47.354;8.528;2023-03-01T00:35:49;10.30;57.40
4578;DHT22;2301;47.354;8.528;2023-03-01T00:38:16;10.20;56.90
4578;DHT22;2301;47.354;8.528;2023-03-01T00:40:43;10.20;56.90
4578;DHT22;2301;47.354;8.528;2023-03-01T00:43:10;10.30;57.30
4578;DHT22;2301;47.354;8.528;2023-03-01T00:45:37;10.30;57.20
4578;DHT22;2301;47.354;8.528;2023-03-01T00:48:05;10.30;56.80
4578;DHT22;2301;47.354;8.528;2023-03-01T00:50:33;10.30;57.60
4578;DHT22;2301;47.354;8.528;2023-03-01T00:53:00;10.00;53.30
4578;DHT22;2301;47.354;8.528;2023-03-01T00:55:27;9.60;51.80
4578;DHT22;2301;47.354;8.528;2023-03-01T00:57:54;9.00;50.90
4578;DHT22;2301;47.354;8.528;2023-03-01T01:00:21;8.60;51.00
4578;DHT22;2301;47.354;8.528;2023-03-01T01:02:49;8.30;51.30
4578;DHT22;2301;47.354;8.528;2023-03-01T01:05:16;7.90;51.50
4578;DHT22;2301;47.354;8.528;2023-03-01T01:07:48;7.70;52.00
4578;DHT22;2301;47.354;8.528;2023-03-01T01:10:15;7.40;52.30
4578;DHT22;2301;47.354;8.528;2023-03-01T01:12:46;7.20;52.70
4578;DHT22;2301;47.354;8.528;2023-03-01T01:15:14;7.00;52.90
4578;DHT22;2301;47.354;8.528;2023-03-01T01:17:42;6.80;53.40
4578;DHT22;2301;47.354;8.528;2023-03-01T01:20:10;6.60;53.50
4578;DHT22;2301;47.354;8.528;2023-03-01T01:22:37;6.50;53.80
4578;DHT22;2301;47.354;8.528;2023-03-01T01:25:06;6.30;54.30
4578;DHT22;2301;47.354;8.528;2023-03-01T01:27:33;6.20;54.60
4578;DHT22;2301;47.354;8.528;2023-03-01T01:30:00;6.10;54.90
4578;DHT22;2301;47.354;8.528;2023-03-01T01:32:27;5.90;55.10
4578;DHT22;2301;47.354;8.528;2023-03-01T01:34:54;5.90;55.40
4578;DHT22;2301;47.354;8.528;2023-03-01T01:37:22;5.80;55.60
4578;DHT22;2301;47.354;8.528;2023-03-01T01:39:56;5.70;55.90
4578;DHT22;2301;47.354;8.528;2023-03-01T01:42:25;5.60;56.10
4578;DHT22;2301;47.354;8.528;2023-03-01T01:48:04;5.50;56.60
4578;DHT22;2301;47.354;8.528;2023-03-01T01:50:39;5.40;56.80
4578;DHT22;2301;47.354;8.528;2023-03-01T01:53:10;5.30;57.10
4578;DHT22;2301;47.354;8.528;2023-03-01T01:55:42;5.30;57.30
4578;DHT22;2301;47.354;8.528;2023-03-01T01:58:15;5.20;57.50
4578;DHT22;2301;47.354;8.528;2023-03-01T02:00:44;5.00;57.70
4578;DHT22;2301;47.354;8.528;2023-03-01T02:03:13;5.00;57.90
4578;DHT22;2301;47.354;8.528;2023-03-01T02:05:46;5.00;58.00
4578;DHT22;2301;47.354;8.528;2023-03-01T02:08:16;5.00;58.20
4578;DHT22;2301;47.354;8.528;2023-03-01T02:10:49;4.90;58.30
4578;DHT22;2301;47.354;8.528;2023-03-01T02:13:47;4.90;58.60
4578;DHT22;2301;47.354;8.528;2023-03-01T02:16:28;4.80;58.70
4578;DHT22;2301;47.354;8.528;2023-03-01T02:19:06;4.80;58.80
4578;DHT22;2301;47.354;8.528;2023-03-01T02:21:45;4.80;58.90
4578;DHT22;2301;47.354;8.528;2023-03-01T02:24:40;4.80;59.20
4578;DHT22;2301;47.354;8.528;2023-03-01T02:27:51;4.70;59.30
4578;DHT22;2301;47.354;8.528;2023-03-01T02:30:34;4.70;59.40
4578;DHT22;2301;47.354;8.528;2023-03-01T02:33:27;4.60;59.60
4578;DHT22;2301;47.354;8.528;2023-03-01T02:36:07;4.60;59.90
4578;DHT22;2301;47.354;8.528;2023-03-01T02:38:48;4.60;60.00
4578;DHT22;2301;47.354;8.528;2023-03-01T02:41:56;4.60;60.00
4578;DHT22;2301;47.354;8.528;2023-03-01T02:44:33;4.50;60.20
4578;DHT22;2301;47.354;8.528;2023-03-01T02:47:03;4.50;60.20
4578;DHT22;2301;47.354;8.528;2023-03-01T02:49:35;4.50;60.20
4578;DHT22;2301;47.354;8.528;2023-03-01T02:52:35;4.50;60.50
4578;DHT22;2301;47.354;8.528;2023-03-01T02:55:11;4.50;60.70
4578;DHT22;2301;47.354;8.528;2023-03-01T02:57:51;4.50;60.70
4578;DHT22;2301;47.354;8.528;2023-03-01T03:00:42;4.50;60.80
4578;DHT22;2301;47.354;8.528;2023-03-01T03:03:23;4.40;60.80
4578;DHT22;2301;47.354;8.528;2023-03-01T03:06:15;4.40;60.90
4578;DHT22;2301;47.354;8.528;2023-03-01T03:08:57;4.30;61.00
4578;DHT22;2301;47.354;8.528;2023-03-01T03:11:42;4.30;61.10
4578;DHT22;2301;47.354;8.528;2023-03-01T03:14:19;4.20;61.30
4578;DHT22;2301;47.354;8.528;2023-03-01T03:17:00;4.20;61.30
4578;DHT22;2301;47.354;8.528;2023-03-01T03:19:33;4.20;61.50
4578;DHT22;2301;47.354;8.528;2023-03-01T03:22:03;4.30;61.60
4578;DHT22;2301;47.354;8.528;2023-03-01T03:24:32;4.30;61.80
4578;DHT22;2301;47.354;8.528;2023-03-01T03:27:16;4.30;61.70
4578;DHT22;2301;47.354;8.528;2023-03-01T03:29:56;4.30;61.70
4578;DHT22;2301;47.354;8.528;2023-03-01T03:32:30;4.30;61.90
4578;DHT22;2301;47.354;8.528;2023-03-01T03:35:03;4.30;61.80
4578;DHT22;2301;47.354;8.528;2023-03-01T03:37:44;4.30;61.80
4578;DHT22;2301;47.354;8.528;2023-03-01T03:40:59;4.20;61.90
4578;DHT22;2301;47.354;8.528;2023-03-01T03:43:42;4.20;61.90
4578;DHT22;2301;47.354;8.528;2023-03-01T03:46:34;4.20;62.10
4578;DHT22;2301;47.354;8.528;2023-03-01T03:49:11;4.20;63.00
4578;DHT22;2301;47.354;8.528;2023-03-01T03:52:04;4.10;62.10
4578;DHT22;2301;47.354;8.528;2023-03-01T03:54:59;4.10;62.20
4578;DHT22;2301;47.354;8.528;2023-03-01T03:58:09;4.10;62.30
4578;DHT22;2301;47.354;8.528;2023-03-01T04:01:06;4.00;62.40
4578;DHT22;2301;47.354;8.528;2023-03-01T04:03:59;4.00;62.60
4578;DHT22;2301;47.354;8.528;2023-03-01T04:06:50;4.00;62.70
4578;DHT22;2301;47.354;8.528;2023-03-01T04:09:27;4.00;63.10
4578;DHT22;2301;47.354;8.528;2023-03-01T04:12:03;4.00;63.10
4578;DHT22;2301;47.354;8.528;2023-03-01T04:14:31;4.00;63.30
4578;DHT22;2301;47.354;8.528;2023-03-01T04:17:07;4.00;63.10
4578;DHT22;2301;47.354;8.528;2023-03-01T04:19:37;4.00;63.10
4578;DHT22;2301;47.354;8.528;2023-03-01T04:22:11;4.00;63.30
4578;DHT22;2301;47.354;8.528;2023-03-01T04:25:08;3.90;63.40
4578;DHT22;2301;47.354;8.528;2023-03-01T04:28:04;3.90;63.50
4578;DHT22;2301;47.354;8.528;2023-03-01T04:30:42;3.80;63.80
4578;DHT22;2301;47.354;8.528;2023-03-01T04:33:31;3.80;64.00
4578;DHT22;2301;47.354;8.528;2023-03-01T04:36:25;3.90;64.10
4578;DHT22;2301;47.354;8.528;2023-03-01T04:39:16;3.90;64.20
4578;DHT22;2301;47.354;8.528;2023-03-01T04:45:07;3.90;64.40
4578;DHT22;2301;47.354;8.528;2023-03-01T04:47:39;3.80;64.40
4578;DHT22;2301;47.354;8.528;2023-03-01T04:50:08;3.80;64.30
4578;DHT22;2301;47.354;8.528;2023-03-01T04:52:53;3.80;64.40
4578;DHT22;2301;47.354;8.528;2023-03-01T04:58:53;3.90;64.50
4578;DHT22;2301;47.354;8.528;2023-03-01T05:01:33;3.90;64.50
4578;DHT22;2301;47.354;8.528;2023-03-01T05:04:04;4.00;64.60
4578;DHT22;2301;47.354;8.528;2023-03-01T05:06:43;3.90;64.60
4578;DHT22;2301;47.354;8.528;2023-03-01T05:09:14;4.00;64.50
4578;DHT22;2301;47.354;8.528;2023-03-01T05:11:44;4.00;64.60
4578;DHT22;2301;47.354;8.528;2023-03-01T05:14:15;4.10;64.60
4578;DHT22;2301;47.354;8.528;2023-03-01T05:16:43;4.10;64.60
4578;DHT22;2301;47.354;8.528;2023-03-01T05:19:13;4.10;64.50
4578;DHT22;2301;47.354;8.528;2023-03-01T05:21:53;4.00;64.50
4578;DHT22;2301;47.354;8.528;2023-03-01T05:24:47;4.10;64.70
4578;DHT22;2301;47.354;8.528;2023-03-01T05:27:39;4.10;64.80
4578;DHT22;2301;47.354;8.528;2023-03-01T05:30:18;4.10;64.90
4578;DHT22;2301;47.354;8.528;2023-03-01T05:32:52;4.10;64.90
4578;DHT22;2301;47.354;8.528;2023-03-01T05:35:27;4.10;64.80
4578;DHT22;2301;47.354;8.528;2023-03-01T05:38:11;4.10;64.80
4578;DHT22;2301;47.354;8.528;2023-03-01T05:40:44;4.10;64.80
4578;DHT22;2301;47.354;8.528;2023-03-01T05:43:16;4.10;64.80
4578;DHT22;2301;47.354;8.528;2023-03-01T05:45:45;4.10;64.70
4578;DHT22;2301;47.354;8.528;2023-03-01T05:48:15;4.10;64.70
4578;DHT22;2301;47.354;8.528;2023-03-01T05:50:47;4.10;64.80
4578;DHT22;2301;47.354;8.528;2023-03-01T05:53:34;4.10;64.80
4578;DHT22;2301;47.354;8.528;2023-03-01T05:59:14;4.20;65.10
4578;DHT22;2301;47.354;8.528;2023-03-01T06:01:48;4.20;65.10
4578;DHT22;2301;47.354;8.528;2023-03-01T06:04:18;4.10;65.00
4578;DHT22;2301;47.354;8.528;2023-03-01T06:06:46;4.20;65.20
4578;DHT22;2301;47.354;8.528;2023-03-01T06:09:19;4.20;65.20
4578;DHT22;2301;47.354;8.528;2023-03-01T06:11:49;4.20;65.20
4578;DHT22;2301;47.354;8.528;2023-03-01T06:14:20;4.20;65.40
4578;DHT22;2301;47.354;8.528;2023-03-01T06:16:50;4.10;65.30
4578;DHT22;2301;47.354;8.528;2023-03-01T06:19:17;4.10;65.30
4578;DHT22;2301;47.354;8.528;2023-03-01T06:21:45;4.10;65.40
4578;DHT22;2301;47.354;8.528;2023-03-01T06:24:15;4.10;65.40
4578;DHT22;2301;47.354;8.528;2023-03-01T06:26:47;4.10;65.50
4578;DHT22;2301;47.354;8.528;2023-03-01T06:29:17;4.10;65.50
4578;DHT22;2301;47.354;8.528;2023-03-01T06:31:45;4.10;65.50
4578;DHT22;2301;47.354;8.528;2023-03-01T06:34:19;4.10;65.50
4578;DHT22;2301;47.354;8.528;2023-03-01T06:36:50;4.10;65.40
4578;DHT22;2301;47.354;8.528;2023-03-01T06:39:23;4.10;65.50
4578;DHT22;2301;47.354;8.528;2023-03-01T06:41:53;4.10;65.50
4578;DHT22;2301;47.354;8.528;2023-03-01T06:44:48;4.10;65.60
4578;DHT22;2301;47.354;8.528;2023-03-01T06:47:16;4.10;65.50
4578;DHT22;2301;47.354;8.528;2023-03-01T06:49:47;4.10;65.70
4578;DHT22;2301;47.354;8.528;2023-03-01T06:52:31;4.10;65.70
4578;DHT22;2301;47.354;8.528;2023-03-01T06:55:38;4.20;65.90
4578;DHT22;2301;47.354;8.528;2023-03-01T06:58:23;4.20;66.00
4578;DHT22;2301;47.354;8.528;2023-03-01T07:04:20;4.20;66.00
4578;DHT22;2301;47.354;8.528;2023-03-01T07:09:54;5.20;87.30
4578;DHT22;2301;47.354;8.528;2023-03-01T07:12:21;5.20;78.90
4578;DHT22;2301;47.354;8.528;2023-03-01T07:14:48;5.20;74.80
4578;DHT22;2301;47.354;8.528;2023-03-01T07:17:15;5.10;72.00
4578;DHT22;2301;47.354;8.528;2023-03-01T07:19:42;5.90;91.70
4578;DHT22;2301;47.354;8.528;2023-03-01T07:22:10;7.30;96.70
4578;DHT22;2301;47.354;8.528;2023-03-01T07:24:37;8.80;93.50
4578;DHT22;2301;47.354;8.528;2023-03-01T07:27:05;8.80;82.40
4578;DHT22;2301;47.354;8.528;2023-03-01T07:29:33;8.60;72.80
4578;DHT22;2301;47.354;8.528;2023-03-01T07:32:02;8.20;66.40
4578;DHT22;2301;47.354;8.528;2023-03-01T07:34:29;7.80;64.20
4578;DHT22;2301;47.354;8.528;2023-03-01T07:36:56;7.50;62.80
4578;DHT22;2301;47.354;8.528;2023-03-01T07:39:23;7.20;62.30
4578;DHT22;2301;47.354;8.528;2023-03-01T07:41:50;6.90;61.60
4578;DHT22;2301;47.354;8.528;2023-03-01T07:44:18;6.70;61.60
4578;DHT22;2301;47.354;8.528;2023-03-01T07:46:48;6.50;61.70
4578;DHT22;2301;47.354;8.528;2023-03-01T07:49:19;6.20;61.70
4578;DHT22;2301;47.354;8.528;2023-03-01T07:51:48;6.10;62.10
4578;DHT22;2301;47.354;8.528;2023-03-01T07:54:15;5.90;62.10
4578;DHT22;2301;47.354;8.528;2023-03-01T07:56:44;5.80;62.50
4578;DHT22;2301;47.354;8.528;2023-03-01T07:59:11;5.70;62.80
4578;DHT22;2301;47.354;8.528;2023-03-01T08:01:39;5.60;63.00
4578;DHT22;2301;47.354;8.528;2023-03-01T08:04:07;5.50;63.10
4578;DHT22;2301;47.354;8.528;2023-03-01T08:06:38;5.40;63.30
4578;DHT22;2301;47.354;8.528;2023-03-01T08:09:05;5.40;63.60
4578;DHT22;2301;47.354;8.528;2023-03-01T08:11:33;5.30;63.80
4578;DHT22;2301;47.354;8.528;2023-03-01T08:14:01;5.30;64.20
4578;DHT22;2301;47.354;8.528;2023-03-01T08:16:28;5.20;64.40
4578;DHT22;2301;47.354;8.528;2023-03-01T08:19:03;5.10;64.40
4578;DHT22;2301;47.354;8.528;2023-03-01T08:21:34;5.10;64.70
4578;DHT22;2301;47.354;8.528;2023-03-01T08:24:04;5.10;65.00
4578;DHT22;2301;47.354;8.528;2023-03-01T08:26:36;5.00;65.20
4578;DHT22;2301;47.354;8.528;2023-03-01T08:29:06;5.10;65.60
4578;DHT22;2301;47.354;8.528;2023-03-01T08:31:35;4.90;65.40
4578;DHT22;2301;47.354;8.528;2023-03-01T08:34:08;4.90;65.50
4578;DHT22;2301;47.354;8.528;2023-03-01T08:36:38;4.90;65.70
4578;DHT22;2301;47.354;8.528;2023-03-01T08:39:10;4.90;66.00
4578;DHT22;2301;47.354;8.528;2023-03-01T08:41:41;5.00;66.30
4578;DHT22;2301;47.354;8.528;2023-03-01T08:44:10;4.80;66.20
4578;DHT22;2301;47.354;8.528;2023-03-01T08:46:39;4.90;66.30
4578;DHT22;2301;47.354;8.528;2023-03-01T08:49:42;4.80;66.30
4578;DHT22;2301;47.354;8.528;2023-03-01T08:58:16;4.70;66.80
4578;DHT22;2301;47.354;8.528;2023-03-01T09:04:31;4.70;67.20
4578;DHT22;2301;47.354;8.528;2023-03-01T09:07:33;4.60;67.30
4578;DHT22;2301;47.354;8.528;2023-03-01T09:10:25;4.60;67.70
4578;DHT22;2301;47.354;8.528;2023-03-01T09:12:55;4.60;67.90
4578;DHT22;2301;47.354;8.528;2023-03-01T09:15:49;4.60;67.90
4578;DHT22;2301;47.354;8.528;2023-03-01T09:18:34;4.60;68.10
4578;DHT22;2301;47.354;8.528;2023-03-01T09:21:39;4.70;68.30
4578;DHT22;2301;47.354;8.528;2023-03-01T09:24:31;4.70;68.30
4578;DHT22;2301;47.354;8.528;2023-03-01T09:27:29;4.70;68.20
4578;DHT22;2301;47.354;8.528;2023-03-01T09:30:27;4.70;68.20
4578;DHT22;2301;47.354;8.528;2023-03-01T09:33:15;4.80;68.10
4578;DHT22;2301;47.354;8.528;2023-03-01T09:35:46;4.70;68.10
4578;DHT22;2301;47.354;8.528;2023-03-01T09:38:23;4.70;68.10
4578;DHT22;2301;47.354;8.528;2023-03-01T09:40:58;4.80;68.20
4578;DHT22;2301;47.354;8.528;2023-03-01T09:43:41;4.80;68.10
4578;DHT22;2301;47.354;8.528;2023-03-01T09:46:25;4.80;68.30
4578;DHT22;2301;47.354;8.528;2023-03-01T09:49:01;4.80;68.40
4578;DHT22;2301;47.354;8.528;2023-03-01T09:51:31;4.80;68.30
4578;DHT22;2301;47.354;8.528;2023-03-01T09:54:18;4.80;68.30
4578;DHT22;2301;47.354;8.528;2023-03-01T09:57:26;4.80;68.30
4578;DHT22;2301;47.354;8.528;2023-03-01T10:03:20;4.90;68.30
4578;DHT22;2301;47.354;8.528;2023-03-01T10:06:01;4.90;68.10
4578;DHT22;2301;47.354;8.528;2023-03-01T10:08:53;4.90;68.20
4578;DHT22;2301;47.354;8.528;2023-03-01T10:11:27;4.90;68.30
4578;DHT22;2301;47.354;8.528;2023-03-01T10:14:04;5.00;68.20
4578;DHT22;2301;47.354;8.528;2023-03-01T10:16:40;5.00;68.20
4578;DHT22;2301;47.354;8.528;2023-03-01T10:19:13;4.90;67.90
4578;DHT22;2301;47.354;8.528;2023-03-01T10:21:48;4.90;68.00
4578;DHT22;2301;47.354;8.528;2023-03-01T10:24:28;4.90;68.20
4578;DHT22;2301;47.354;8.528;2023-03-01T10:27:00;5.00;68.40
4578;DHT22;2301;47.354;8.528;2023-03-01T10:29:39;4.90;68.30
4578;DHT22;2301;47.354;8.528;2023-03-01T10:32:32;4.90;68.30
4578;DHT22;2301;47.354;8.528;2023-03-01T10:35:19;5.00;68.40
4578;DHT22;2301;47.354;8.528;2023-03-01T10:38:04;5.00;68.30
4578;DHT22;2301;47.354;8.528;2023-03-01T10:40:54;4.90;68.10
4578;DHT22;2301;47.354;8.528;2023-03-01T10:43:27;4.90;68.10
4578;DHT22;2301;47.354;8.528;2023-03-01T10:45:58;4.90;68.10
4578;DHT22;2301;47.354;8.528;2023-03-01T10:48:26;5.00;68.20
4578;DHT22;2301;47.354;8.528;2023-03-01T10:51:06;5.00;68.20
4578;DHT22;2301;47.354;8.528;2023-03-01T10:53:36;5.00;68.10
4578;DHT22;2301;47.354;8.528;2023-03-01T11:06:30;5.10;68.10
4578;DHT22;2301;47.354;8.528;2023-03-01T11:15:33;5.00;67.80
4578;DHT22;2301;47.354;8.528;2023-03-01T11:18:30;5.10;67.80
4578;DHT22;2301;47.354;8.528;2023-03-01T11:20:58;5.10;67.80
4578;DHT22;2301;47.354;8.528;2023-03-01T11:23:28;5.10;67.80
4578;DHT22;2301;47.354;8.528;2023-03-01T11:25:58;5.10;67.70
4578;DHT22;2301;47.354;8.528;2023-03-01T11:28:40;5.10;67.70
4578;DHT22;2301;47.354;8.528;2023-03-01T11:31:38;5.20;67.60
4578;DHT22;2301;47.354;8.528;2023-03-01T11:34:53;5.20;67.60
4578;DHT22;2301;47.354;8.528;2023-03-01T11:37:55;5.20;67.40
4578;DHT22;2301;47.354;8.528;2023-03-01T11:46:44;5.10;67.10
4578;DHT22;2301;47.354;8.528;2023-03-01T11:53:15;5.20;67.20
4578;DHT22;2301;47.354;8.528;2023-03-01T12:11:10;5.10;67.10
4578;DHT22;2301;47.354;8.528;2023-03-01T12:20:29;5.10;66.90
4578;DHT22;2301;47.354;8.528;2023-03-01T12:27:06;5.20;67.00
4578;DHT22;2301;47.354;8.528;2023-03-01T12:30:02;5.20;67.00
4578;DHT22;2301;47.354;8.528;2023-03-01T12:36:34;5.10;66.80
4578;DHT22;2301;47.354;8.528;2023-03-01T12:42:10;5.20;66.90
4578;DHT22;2301;47.354;8.528;2023-03-01T12:44:50;5.20;66.50
4578;DHT22;2301;47.354;8.528;2023-03-01T12:47:42;5.20;66.60
4578;DHT22;2301;47.354;8.528;2023-03-01T12:50:21;5.20;66.80
4578;DHT22;2301;47.354;8.528;2023-03-01T12:52:51;5.20;66.70
4578;DHT22;2301;47.354;8.528;2023-03-01T12:55:27;5.30;66.50
4578;DHT22;2301;47.354;8.528;2023-03-01T12:58:24;5.30;66.50
4578;DHT22;2301;47.354;8.528;2023-03-01T13:01:08;5.30;66.80
4578;DHT22;2301;47.354;8.528;2023-03-01T13:04:02;5.30;66.90
4578;DHT22;2301;47.354;8.528;2023-03-01T13:09:25;5.30;66.80
4578;DHT22;2301;47.354;8.528;2023-03-01T13:11:55;5.30;66.50
4578;DHT22;2301;47.354;8.528;2023-03-01T13:14:57;5.30;66.50
4578;DHT22;2301;47.354;8.528;2023-03-01T13:17:33;5.30;66.60
4578;DHT22;2301;47.354;8.528;2023-03-01T13:20:21;5.30;66.50
4578;DHT22;2301;47.354;8.528;2023-03-01T13:26:15;5.30;66.50
4578;DHT22;2301;47.354;8.528;2023-03-01T13:29:11;5.30;66.50
4578;DHT22;2301;47.354;8.528;2023-03-01T13:32:20;5.40;66.40
4578;DHT22;2301;47.354;8.528;2023-03-01T13:34:54;5.40;66.50
4578;DHT22;2301;47.354;8.528;2023-03-01T13:43:46;5.30;66.20
4578;DHT22;2301;47.354;8.528;2023-03-01T13:46:27;5.30;66.40
4578;DHT22;2301;47.354;8.528;2023-03-01T13:48:57;5.30;66.60
4578;DHT22;2301;47.354;8.528;2023-03-01T13:51:27;5.30;66.50
4578;DHT22;2301;47.354;8.528;2023-03-01T13:53:55;5.30;66.50
4578;DHT22;2301;47.354;8.528;2023-03-01T13:56:40;5.30;66.50
4578;DHT22;2301;47.354;8.528;2023-03-01T13:59:14;5.30;66.40
4578;DHT22;2301;47.354;8.528;2023-03-01T14:01:42;5.40;66.40
4578;DHT22;2301;47.354;8.528;2023-03-01T14:04:29;5.40;66.40
4578;DHT22;2301;47.354;8.528;2023-03-01T14:07:23;5.50;66.50
4578;DHT22;2301;47.354;8.528;2023-03-01T14:10:01;5.40;66.20
4578;DHT22;2301;47.354;8.528;2023-03-01T14:12:39;5.40;66.10
4578;DHT22;2301;47.354;8.528;2023-03-01T14:15:18;5.40;66.30
4578;DHT22;2301;47.354;8.528;2023-03-01T14:17:55;5.40;66.30
4578;DHT22;2301;47.354;8.528;2023-03-01T14:20:55;5.40;66.10
4578;DHT22;2301;47.354;8.528;2023-03-01T14:23:23;5.40;66.00
4578;DHT22;2301;47.354;8.528;2023-03-01T14:25:57;5.40;66.10
4578;DHT22;2301;47.354;8.528;2023-03-01T14:28:28;5.50;66.10
4578;DHT22;2301;47.354;8.528;2023-03-01T14:31:04;5.50;65.80
4578;DHT22;2301;47.354;8.528;2023-03-01T14:33:55;5.50;65.90
4578;DHT22;2301;47.354;8.528;2023-03-01T14:36:28;5.50;65.70
4578;DHT22;2301;47.354;8.528;2023-03-01T14:38:56;5.50;65.70
4578;DHT22;2301;47.354;8.528;2023-03-01T14:41:26;5.50;65.70
4578;DHT22;2301;47.354;8.528;2023-03-01T14:44:02;5.50;65.60
4578;DHT22;2301;47.354;8.528;2023-03-01T14:46:45;5.40;65.40
4578;DHT22;2301;47.354;8.528;2023-03-01T14:49:14;5.40;65.40
4578;DHT22;2301;47.354;8.528;2023-03-01T14:51:51;5.40;65.40
4578;DHT22;2301;47.354;8.528;2023-03-01T14:54:40;5.30;65.20
4578;DHT22;2301;47.354;8.528;2023-03-01T14:57:14;5.30;65.40
4578;DHT22;2301;47.354;8.528;2023-03-01T14:59:43;5.40;65.50
4578;DHT22;2301;47.354;8.528;2023-03-01T15:02:15;5.30;65.40
4578;DHT22;2301;47.354;8.528;2023-03-01T15:05:05;5.30;65.30
4578;DHT22;2301;47.354;8.528;2023-03-01T15:07:40;5.30;65.30
4578;DHT22;2301;47.354;8.528;2023-03-01T15:10:17;5.30;65.30
4578;DHT22;2301;47.354;8.528;2023-03-01T15:12:48;5.30;65.30
4578;DHT22;2301;47.354;8.528;2023-03-01T15:16:13;5.20;65.20
4578;DHT22;2301;47.354;8.528;2023-03-01T15:18:57;5.20;65.40
4578;DHT22;2301;47.354;8.528;2023-03-01T15:21:31;5.20;65.40
4578;DHT22;2301;47.354;8.528;2023-03-01T15:24:16;5.20;65.40
4578;DHT22;2301;47.354;8.528;2023-03-01T15:26:53;5.20;65.40
4578;DHT22;2301;47.354;8.528;2023-03-01T15:29:27;5.20;65.50
4578;DHT22;2301;47.354;8.528;2023-03-01T15:32:25;5.20;65.20
4578;DHT22;2301;47.354;8.528;2023-03-01T15:34:53;5.20;65.20
4578;DHT22;2301;47.354;8.528;2023-03-01T15:37:49;5.20;65.10
4578;DHT22;2301;47.354;8.528;2023-03-01T15:41:01;5.30;65.20
4578;DHT22;2301;47.354;8.528;2023-03-01T15:44:17;5.30;65.30
4578;DHT22;2301;47.354;8.528;2023-03-01T15:46:47;5.30;65.30
4578;DHT22;2301;47.354;8.528;2023-03-01T15:52:17;5.30;65.10
4578;DHT22;2301;47.354;8.528;2023-03-01T15:55:06;5.30;65.20
4578;DHT22;2301;47.354;8.528;2023-03-01T15:57:40;5.20;65.10
4578;DHT22;2301;47.354;8.528;2023-03-01T16:00:10;5.20;65.00
4578;DHT22;2301;47.354;8.528;2023-03-01T16:02:39;5.20;65.00
4578;DHT22;2301;47.354;8.528;2023-03-01T16:05:14;5.20;64.90
4578;DHT22;2301;47.354;8.528;2023-03-01T16:07:43;5.20;65.00
4578;DHT22;2301;47.354;8.528;2023-03-01T16:10:10;5.20;65.20
4578;DHT22;2301;47.354;8.528;2023-03-01T16:12:38;5.20;65.30
4578;DHT22;2301;47.354;8.528;2023-03-01T16:15:15;5.20;65.10
4578;DHT22;2301;47.354;8.528;2023-03-01T16:17:43;5.20;65.10
4578;DHT22;2301;47.354;8.528;2023-03-01T16:20:11;5.20;65.00
4578;DHT22;2301;47.354;8.528;2023-03-01T16:22:41;5.20;65.00
4578;DHT22;2301;47.354;8.528;2023-03-01T16:25:09;5.20;64.80
4578;DHT22;2301;47.354;8.528;2023-03-01T16:27:36;5.20;64.80
4578;DHT22;2301;47.354;8.528;2023-03-01T16:30:03;5.20;64.80
4578;DHT22;2301;47.354;8.528;2023-03-01T16:32:32;5.10;64.80
4578;DHT22;2301;47.354;8.528;2023-03-01T16:34:59;5.10;64.60
4578;DHT22;2301;47.354;8.528;2023-03-01T16:37:26;5.10;64.70
4578;DHT22;2301;47.354;8.528;2023-03-01T16:39:53;5.10;64.80
4578;DHT22;2301;47.354;8.528;2023-03-01T16:42:20;5.10;65.00
4578;DHT22;2301;47.354;8.528;2023-03-01T16:44:47;5.10;65.00
4578;DHT22;2301;47.354;8.528;2023-03-01T16:47:14;5.10;65.00
4578;DHT22;2301;47.354;8.528;2023-03-01T16:49:42;5.10;65.00
4578;DHT22;2301;47.354;8.528;2023-03-01T16:52:09;5.10;64.90
4578;DHT22;2301;47.354;8.528;2023-03-01T16:54:36;5.10;64.90
4578;DHT22;2301;47.354;8.528;2023-03-01T16:57:03;5.20;65.00
4578;DHT22;2301;47.354;8.528;2023-03-01T16:59:30;5.10;64.60
4578;DHT22;2301;47.354;8.528;2023-03-01T17:01:57;5.20;64.70
4578;DHT22;2301;47.354;8.528;2023-03-01T17:04:24;5.20;64.80
4578;DHT22;2301;47.354;8.528;2023-03-01T17:06:52;5.10;64.60
4578;DHT22;2301;47.354;8.528;2023-03-01T17:09:19;5.10;64.60
4578;DHT22;2301;47.354;8.528;2023-03-01T17:11:47;5.10;64.70
4578;DHT22;2301;47.354;8.528;2023-03-01T17:14:15;5.10;64.80
4578;DHT22;2301;47.354;8.528;2023-03-01T17:16:42;5.10;64.70
4578;DHT22;2301;47.354;8.528;2023-03-01T17:19:10;5.20;64.80
4578;DHT22;2301;47.354;8.528;2023-03-01T17:21:42;5.20;64.80
4578;DHT22;2301;47.354;8.528;2023-03-01T17:24:12;5.20;64.70
4578;DHT22;2301;47.354;8.528;2023-03-01T17:26:39;5.20;64.70
4578;DHT22;2301;47.354;8.528;2023-03-01T17:29:06;5.20;64.70
4578;DHT22;2301;47.354;8.528;2023-03-01T17:31:33;5.20;64.50
4578;DHT22;2301;47.354;8.528;2023-03-01T17:34:00;5.20;64.40
4578;DHT22;2301;47.354;8.528;2023-03-01T17:36:27;5.20;64.40
4578;DHT22;2301;47.354;8.528;2023-03-01T17:38:54;5.20;64.50
4578;DHT22;2301;47.354;8.528;2023-03-01T17:41:22;5.20;64.50
4578;DHT22;2301;47.354;8.528;2023-03-01T17:43:49;5.20;64.40
4578;DHT22;2301;47.354;8.528;2023-03-01T17:46:16;5.20;64.40
4578;DHT22;2301;47.354;8.528;2023-03-01T17:48:43;5.20;64.50
4578;DHT22;2301;47.354;8.528;2023-03-01T17:51:11;5.20;64.70
4578;DHT22;2301;47.354;8.528;2023-03-01T17:53:38;5.20;64.70
4578;DHT22;2301;47.354;8.528;2023-03-01T17:56:06;5.30;64.80
4578;DHT22;2301;47.354;8.528;2023-03-01T17:58:34;5.30;64.80
4578;DHT22;2301;47.354;8.528;2023-03-01T18:01:07;5.30;64.70
4578;DHT22;2301;47.354;8.528;2023-03-01T18:03:34;5.20;64.60
4578;DHT22;2301;47.354;8.528;2023-03-01T18:06:01;5.20;64.50
4578;DHT22;2301;47.354;8.528;2023-03-01T18:08:28;5.30;64.60
4578;DHT22;2301;47.354;8.528;2023-03-01T18:10:57;5.20;64.50
4578;DHT22;2301;47.354;8.528;2023-03-01T18:13:24;5.30;64.40
4578;DHT22;2301;47.354;8.528;2023-03-01T18:15:52;5.20;64.40
4578;DHT22;2301;47.354;8.528;2023-03-01T18:18:25;5.30;64.60
4578;DHT22;2301;47.354;8.528;2023-03-01T18:20:55;5.30;64.60
4578;DHT22;2301;47.354;8.528;2023-03-01T18:23:23;5.30;64.80
4578;DHT22;2301;47.354;8.528;2023-03-01T18:25:50;5.30;64.90
4578;DHT22;2301;47.354;8.528;2023-03-01T18:28:17;5.30;64.70
4578;DHT22;2301;47.354;8.528;2023-03-01T18:30:44;5.30;64.70
4578;DHT22;2301;47.354;8.528;2023-03-01T18:33:13;5.30;64.70
4578;DHT22;2301;47.354;8.528;2023-03-01T18:35:40;5.30;64.60
4578;DHT22;2301;47.354;8.528;2023-03-01T18:38:07;5.30;64.70
4578;DHT22;2301;47.354;8.528;2023-03-01T18:40:33;5.30;64.70
4578;DHT22;2301;47.354;8.528;2023-03-01T18:43:00;5.40;64.80
4578;DHT22;2301;47.354;8.528;2023-03-01T18:45:27;5.30;64.70
4578;DHT22;2301;47.354;8.528;2023-03-01T18:47:56;5.40;64.90
4578;DHT22;2301;47.354;8.528;2023-03-01T18:50:24;5.40;65.00
4578;DHT22;2301;47.354;8.528;2023-03-01T18:52:51;5.40;64.80
4578;DHT22;2301;47.354;8.528;2023-03-01T18:55:18;5.40;64.70
4578;DHT22;2301;47.354;8.528;2023-03-01T18:57:45;5.40;64.50
4578;DHT22;2301;47.354;8.528;2023-03-01T19:00:13;5.40;64.60